createdAt,value
2024-02-22T00:01:56.837Z,48.50
2024-02-22T00:08:15.122Z,46.00
2024-02-22T00:10:43.078Z,44.20
2024-02-22T00:13:11.904Z,45.60
2024-02-22T00:15:40.127Z,43.50
2024-02-22T00:18:07.947Z,44.50
2024-02-22T00:20:35.508Z,47.30
2024-02-22T00:23:04.325Z,43.90
2024-02-22T00:25:32.341Z,42.90
2024-02-22T00:28:00.166Z,46.80
2024-02-22T00:30:31.627Z,48.40
2024-02-22T00:32:59.176Z,45.30
2024-02-22T00:35:26.830Z,44.30
2024-02-22T00:37:54.455Z,43.40
2024-02-22T00:40:22.078Z,40.50
2024-02-22T00:42:49.868Z,43.80
2024-02-22T00:45:18.270Z,38.20
2024-02-22T00:47:45.842Z,42.80
2024-02-22T00:50:13.583Z,39.00
2024-02-22T00:52:44.341Z,38.10
2024-02-22T00:55:11.871Z,39.40
2024-02-22T00:57:39.399Z,37.50
2024-02-22T01:00:08.033Z,41.30
2024-02-22T01:02:35.591Z,35.90
2024-02-22T01:05:03.593Z,38.00
2024-02-22T01:07:32.900Z,38.60
2024-02-22T01:10:00.692Z,36.50
2024-02-22T01:12:28.765Z,36.90
2024-02-22T01:14:56.492Z,36.20
2024-02-22T01:17:23.969Z,34.80
2024-02-22T01:19:51.545Z,32.50
2024-02-22T01:22:19.285Z,31.10
2024-02-22T01:24:47.077Z,30.40
2024-02-22T01:27:14.558Z,37.00
2024-02-22T01:29:43.707Z,33.80
2024-02-22T01:32:11.408Z,34.40
2024-02-22T01:34:39.035Z,31.60
2024-02-22T01:37:06.569Z,31.00
2024-02-22T01:39:34.058Z,29.20
2024-02-22T01:42:01.577Z,30.60
2024-02-22T01:44:29.979Z,30.80
2024-02-22T01:46:57.771Z,33.50
2024-02-22T01:49:25.733Z,34.90
2024-02-22T01:51:59.419Z,36.20
2024-02-22T01:54:27.298Z,32.40
2024-02-22T01:56:55.443Z,26.50
2024-02-22T01:59:23.066Z,33.10
2024-02-22T02:01:52.392Z,29.00
2024-02-22T02:04:20.296Z,30.10
2024-02-22T02:06:47.968Z,26.70
2024-02-22T02:09:15.595Z,30.70
2024-02-22T02:11:43.330Z,29.30
2024-02-22T02:14:11.086Z,27.40
2024-02-22T02:16:38.738Z,27.00
2024-02-22T02:19:08.964Z,25.70
2024-02-22T02:22:09.647Z,28.40
2024-02-22T02:24:53.544Z,29.80
2024-02-22T02:27:21.255Z,27.90
2024-02-22T02:29:48.881Z,27.10
2024-02-22T02:32:16.512Z,25.80
2024-02-22T02:34:44.140Z,24.20
2024-02-22T02:37:12.701Z,24.40
2024-02-22T02:39:40.163Z,23.00
2024-02-22T02:42:07.999Z,23.50
2024-02-22T02:44:35.465Z,27.40
2024-02-22T02:47:08.110Z,25.70
2024-02-22T02:49:35.774Z,26.50
2024-02-22T02:52:03.507Z,28.10
2024-02-22T02:54:31.028Z,29.80
2024-02-22T02:56:58.510Z,28.40
2024-02-22T02:59:26.504Z,25.50
2024-02-22T03:01:54.074Z,25.90
2024-02-22T03:04:21.731Z,25.10
2024-02-22T03:06:49.391Z,25.60
2024-02-22T03:09:17.045Z,25.40
2024-02-22T03:11:45.110Z,27.90
2024-02-22T03:14:12.916Z,27.50
2024-02-22T03:16:40.525Z,24.70
2024-02-22T03:19:08.133Z,29.40
2024-02-22T03:21:36.495Z,25.60
2024-02-22T03:24:04.909Z,26.70
2024-02-22T03:26:32.453Z,25.80
2024-02-22T03:28:59.930Z,26.30
2024-02-22T03:31:29.742Z,29.90
2024-02-22T03:33:57.783Z,25.70
2024-02-22T03:36:25.303Z,29.30
2024-02-22T03:38:54.685Z,25.70
2024-02-22T03:41:25.559Z,26.80
2024-02-22T03:43:53.409Z,28.80
2024-02-22T03:46:21.335Z,24.40
2024-02-22T03:48:48.932Z,26.70
2024-02-22T03:51:16.635Z,27.10
2024-02-22T03:53:46.323Z,25.90
2024-02-22T03:56:14.494Z,29.00
2024-02-22T03:58:42.144Z,27.20
2024-02-22T04:01:10.036Z,24.60
2024-02-22T04:03:37.623Z,25.80
2024-02-22T04:06:05.291Z,24.80
2024-02-22T04:08:33.223Z,29.30
2024-02-22T04:11:00.796Z,30.60
2024-02-22T04:13:28.541Z,30.30
2024-02-22T04:15:55.995Z,28.10
2024-02-22T04:18:23.584Z,29.00
2024-02-22T04:20:51.099Z,28.00
2024-02-22T04:23:18.846Z,26.90
2024-02-22T04:25:46.922Z,31.30
2024-02-22T04:28:19.428Z,29.30
2024-02-22T04:30:47.607Z,28.50
2024-02-22T04:33:15.945Z,29.30
2024-02-22T04:35:51.779Z,28.90
2024-02-22T04:38:19.906Z,30.80
2024-02-22T04:40:47.511Z,29.50
2024-02-22T04:43:15.216Z,29.20
2024-02-22T04:45:42.730Z,30.30
2024-02-22T04:48:10.806Z,30.90
2024-02-22T04:50:39.796Z,35.30
2024-02-22T04:53:07.720Z,32.00
2024-02-22T04:55:41.302Z,28.30
2024-02-22T04:58:08.810Z,30.80
2024-02-22T05:00:36.682Z,34.50
2024-02-22T05:03:05.239Z,30.60
2024-02-22T05:05:34.010Z,31.70
2024-02-22T05:08:03.448Z,29.40
2024-02-22T05:10:33.453Z,32.30
2024-02-22T05:13:01.279Z,31.30
2024-02-22T05:15:28.917Z,29.80
2024-02-22T05:18:00.002Z,33.70
2024-02-22T05:20:29.940Z,30.50
2024-02-22T05:22:57.524Z,32.20
2024-02-22T05:25:25.070Z,35.80
2024-02-22T05:27:52.581Z,35.60
2024-02-22T05:30:20.236Z,35.90
2024-02-22T05:32:48.032Z,34.70
2024-02-22T05:35:15.884Z,34.30
2024-02-22T05:37:43.577Z,32.60
2024-02-22T05:40:12.214Z,35.90
2024-02-22T05:42:39.932Z,35.40
2024-02-22T05:45:08.416Z,36.50
2024-02-22T05:47:36.509Z,37.40
2024-02-22T05:50:04.600Z,40.30
2024-02-22T05:52:32.155Z,36.60
2024-02-22T05:54:59.733Z,35.60
2024-02-22T05:57:27.360Z,32.50
2024-02-22T05:59:54.971Z,33.80
2024-02-22T06:02:22.540Z,32.80
2024-02-22T06:04:51.014Z,34.00
2024-02-22T06:07:19.198Z,32.20
2024-02-22T06:09:46.919Z,35.00
2024-02-22T06:12:16.424Z,31.60
2024-02-22T06:14:44.484Z,32.20
2024-02-22T06:17:12.595Z,33.50
2024-02-22T06:19:40.554Z,36.10
2024-02-22T06:22:08.041Z,36.80
2024-02-22T06:24:35.653Z,32.90
2024-02-22T06:27:03.918Z,39.00
2024-02-22T06:29:32.180Z,36.70
2024-02-22T06:32:00.316Z,36.00
2024-02-22T06:34:28.064Z,35.10
2024-02-22T06:36:55.720Z,35.50
2024-02-22T06:39:24.485Z,35.20
2024-02-22T06:41:52.350Z,35.50
2024-02-22T06:44:20.042Z,36.10
2024-02-22T06:46:48.434Z,37.40
2024-02-22T06:49:17.183Z,35.60
2024-02-22T06:51:44.974Z,36.90
2024-02-22T06:54:14.471Z,34.60
2024-02-22T06:56:42.416Z,33.30
2024-02-22T06:59:10.494Z,36.50
2024-02-22T07:01:38.467Z,39.80
2024-02-22T07:04:16.393Z,38.80
2024-02-22T07:06:52.605Z,43.30
2024-02-22T07:09:23.815Z,42.60
2024-02-22T07:11:51.977Z,40.60
2024-02-22T07:14:20.698Z,41.30
2024-02-22T07:16:50.607Z,42.40
2024-02-22T07:19:19.203Z,39.10
2024-02-22T07:21:47.570Z,39.20
2024-02-22T07:24:15.121Z,37.40
2024-02-22T07:26:42.710Z,41.90
2024-02-22T07:29:12.373Z,41.90
2024-02-22T07:31:41.575Z,37.60
2024-02-22T07:34:10.414Z,41.60
2024-02-22T07:36:39.325Z,39.50
2024-02-22T07:39:06.844Z,40.40
2024-02-22T07:41:34.410Z,37.40
2024-02-22T07:44:02.304Z,38.00
2024-02-22T07:46:29.910Z,39.60
2024-02-22T07:48:57.568Z,39.40
2024-02-22T07:51:25.157Z,39.30
2024-02-22T07:53:53.890Z,40.50
2024-02-22T07:56:22.213Z,41.60
2024-02-22T07:58:55.436Z,38.70
2024-02-22T08:01:23.205Z,44.20
2024-02-22T08:03:50.897Z,39.90
2024-02-22T08:06:18.612Z,40.80
2024-02-22T08:08:47.618Z,39.30
2024-02-22T08:11:15.276Z,43.50
2024-02-22T08:13:43.440Z,44.60
2024-02-22T08:16:11.974Z,50.20
2024-02-22T08:18:40.736Z,43.40
2024-02-22T08:21:08.626Z,45.60
2024-02-22T08:23:36.499Z,46.20
2024-02-22T08:26:04.211Z,46.30
2024-02-22T08:28:34.086Z,42.30
2024-02-22T08:31:01.926Z,46.80
2024-02-22T08:33:31.038Z,41.90
2024-02-22T08:35:59.013Z,41.80
2024-02-22T08:38:27.546Z,50.80
2024-02-22T08:40:55.353Z,47.70
2024-02-22T08:43:22.890Z,45.30
2024-02-22T08:45:50.570Z,46.40
2024-02-22T08:48:19.119Z,47.00
2024-02-22T08:50:46.924Z,49.50
2024-02-22T08:53:14.580Z,42.80
2024-02-22T08:55:43.432Z,48.10
2024-02-22T08:58:11.035Z,49.80
2024-02-22T09:00:38.685Z,51.20
2024-02-22T09:03:06.290Z,46.00
2024-02-22T09:05:34.223Z,50.30
2024-02-22T09:08:02.056Z,51.80
2024-02-22T09:10:29.903Z,46.80
2024-02-22T09:12:57.435Z,49.10
2024-02-22T09:15:25.033Z,46.50
2024-02-22T09:17:52.600Z,52.80
2024-02-22T09:20:21.159Z,42.20
2024-02-22T09:22:49.271Z,45.80
2024-02-22T09:25:17.042Z,52.00
2024-02-22T09:27:45.290Z,47.90
2024-02-22T09:30:13.290Z,46.10
2024-02-22T09:32:40.857Z,53.50
2024-02-22T09:35:08.440Z,52.00
2024-02-22T09:37:36.386Z,44.30
2024-02-22T09:40:04.399Z,45.90
2024-02-22T09:42:32.010Z,45.80
2024-02-22T09:44:59.697Z,48.60
2024-02-22T09:47:28.711Z,42.00
2024-02-22T09:49:56.538Z,46.10
2024-02-22T09:52:24.515Z,46.60
2024-02-22T09:54:52.365Z,46.90
2024-02-22T09:57:19.896Z,46.60
2024-02-22T09:59:51.885Z,48.30
2024-02-22T10:02:20.277Z,48.30
2024-02-22T10:04:52.790Z,53.10
2024-02-22T10:07:27.435Z,46.70
2024-02-22T10:09:55.233Z,48.60
2024-02-22T10:12:35.438Z,48.30
2024-02-22T10:15:10.600Z,44.60
2024-02-22T10:17:39.408Z,49.30
2024-02-22T10:20:09.099Z,46.80
2024-02-22T10:22:40.468Z,48.80
2024-02-22T10:25:13.986Z,51.30
2024-02-22T10:27:47.507Z,47.00
2024-02-22T10:30:15.416Z,51.30
2024-02-22T10:32:43.962Z,52.00
2024-02-22T10:35:12.981Z,46.20
2024-02-22T10:37:41.198Z,56.40
2024-02-22T10:40:13.346Z,49.10
2024-02-22T10:42:41.403Z,49.10
2024-02-22T10:45:10.029Z,47.60
2024-02-22T10:47:40.752Z,50.60
2024-02-22T10:50:08.752Z,46.30
2024-02-22T10:52:39.387Z,43.30
2024-02-22T10:55:10.450Z,44.50
2024-02-22T10:57:38.102Z,46.20
2024-02-22T11:00:06.261Z,44.60
2024-02-22T11:02:33.897Z,43.10
2024-02-22T11:05:05.331Z,46.70
2024-02-22T11:07:33.387Z,44.90
2024-02-22T11:10:06.540Z,43.20
2024-02-22T11:12:34.648Z,41.80
2024-02-22T11:15:08.943Z,50.90
2024-02-22T11:17:36.731Z,43.40
2024-02-22T11:20:10.831Z,40.70
2024-02-22T11:22:38.777Z,40.60
2024-02-22T11:25:08.895Z,42.40
2024-02-22T11:27:37.918Z,44.00
2024-02-22T11:30:19.177Z,46.40
2024-02-22T11:32:49.623Z,43.10
2024-02-22T11:35:17.269Z,41.00
2024-02-22T11:37:44.876Z,45.80
2024-02-22T11:40:12.450Z,45.70
2024-02-22T11:42:40.028Z,43.40
2024-02-22T11:45:12.025Z,46.70
2024-02-22T11:47:40.805Z,47.40
2024-02-22T11:50:09.049Z,46.00
2024-02-22T11:52:36.784Z,46.20
2024-02-22T11:55:04.698Z,45.50
2024-02-22T11:57:32.198Z,44.10
2024-02-22T11:59:59.913Z,44.40
2024-02-22T12:02:27.681Z,42.30
2024-02-22T12:04:56.041Z,38.60
2024-02-22T12:07:23.775Z,43.70
2024-02-22T12:09:51.478Z,39.10
2024-02-22T12:12:19.373Z,36.70
2024-02-22T12:14:58.254Z,36.90
2024-02-22T12:17:33.280Z,38.50
2024-02-22T12:20:01.671Z,37.10
2024-02-22T12:22:31.211Z,39.20
2024-02-22T12:24:59.916Z,36.90
2024-02-22T12:27:30.465Z,37.20
2024-02-22T12:29:59.265Z,36.90
2024-02-22T12:32:27.091Z,40.90
2024-02-22T12:34:55.547Z,36.00
2024-02-22T12:37:24.686Z,37.20
2024-02-22T12:39:52.256Z,36.20
2024-02-22T12:42:20.108Z,39.00
2024-02-22T12:44:47.647Z,34.90
2024-02-22T12:47:15.412Z,37.40
2024-02-22T12:49:43.934Z,34.20
2024-02-22T12:52:13.152Z,39.00
2024-02-22T12:54:40.903Z,35.50
2024-02-22T12:57:09.773Z,34.30
2024-02-22T12:59:37.430Z,38.40
2024-02-22T13:02:05.372Z,37.10
2024-02-22T13:04:33.126Z,36.80
2024-02-22T13:07:01.368Z,40.60
2024-02-22T13:09:28.941Z,36.10
2024-02-22T13:11:56.611Z,36.00
2024-02-22T13:14:25.703Z,34.80
2024-02-22T13:16:53.517Z,37.30
2024-02-22T13:19:21.248Z,35.30
2024-02-22T13:21:48.870Z,37.90
2024-02-22T13:24:16.396Z,35.80
2024-02-22T13:26:44.022Z,34.10
2024-02-22T13:29:11.629Z,37.70
2024-02-22T13:31:39.308Z,34.90
2024-02-22T13:34:07.261Z,36.10
2024-02-22T13:36:35.472Z,33.70
2024-02-22T13:39:04.719Z,35.30
2024-02-22T13:41:32.337Z,36.20
2024-02-22T13:43:59.963Z,41.50
2024-02-22T13:46:27.721Z,40.60
2024-02-22T13:48:55.361Z,36.30
2024-02-22T13:51:29.675Z,37.50
2024-02-22T13:54:03.738Z,37.50
2024-02-22T13:56:32.313Z,39.90
2024-02-22T13:58:59.930Z,34.00
2024-02-22T14:01:27.500Z,32.70
2024-02-22T14:03:55.231Z,33.80
2024-02-22T14:06:22.972Z,36.70
2024-02-22T14:08:50.772Z,36.20
2024-02-22T14:11:18.562Z,33.40
2024-02-22T14:13:46.231Z,38.30
2024-02-22T14:16:13.885Z,37.40
2024-02-22T14:18:41.511Z,35.00
2024-02-22T14:21:14.928Z,33.80
2024-02-22T14:23:44.187Z,36.60
2024-02-22T14:26:11.911Z,30.00
2024-02-22T14:28:39.479Z,31.40
2024-02-22T14:31:07.059Z,33.80
2024-02-22T14:33:34.661Z,29.20
2024-02-22T14:36:02.225Z,31.70
2024-02-22T14:38:29.811Z,32.10
2024-02-22T14:40:57.407Z,28.40
2024-02-22T14:43:25.051Z,30.50
2024-02-22T14:45:52.716Z,31.40
2024-02-22T14:48:20.383Z,36.10
2024-02-22T14:50:48.282Z,31.50
2024-02-22T14:53:15.904Z,31.90
2024-02-22T14:55:43.952Z,33.10
2024-02-22T14:58:11.494Z,30.90
2024-02-22T15:00:40.101Z,35.00
2024-02-22T15:03:07.657Z,33.00
2024-02-22T15:05:35.384Z,34.50
2024-02-22T15:08:03.181Z,30.00
2024-02-22T15:10:31.796Z,35.00
2024-02-22T15:12:59.457Z,34.50
2024-02-22T15:15:27.073Z,35.90
2024-02-22T15:17:54.773Z,28.20
2024-02-22T15:20:22.532Z,33.90
2024-02-22T15:22:50.081Z,33.50
2024-02-22T15:25:20.177Z,28.80
2024-02-22T15:27:47.930Z,34.30
2024-02-22T15:30:15.745Z,32.30
2024-02-22T15:32:43.406Z,33.80
2024-02-22T15:35:12.047Z,30.20
2024-02-22T15:37:39.794Z,34.10
2024-02-22T15:40:08.374Z,88.30
2024-02-22T15:42:35.926Z,52.50
2024-02-22T15:45:04.466Z,35.50
2024-02-22T15:47:32.618Z,41.40
2024-02-22T15:50:01.831Z,53.90
2024-02-22T15:52:29.432Z,60.90
2024-02-22T15:54:58.334Z,54.60
2024-02-22T15:57:26.316Z,38.80
2024-02-22T15:59:53.888Z,35.60
2024-02-22T16:02:22.662Z,33.40
2024-02-22T16:04:50.877Z,30.50
2024-02-22T16:07:18.538Z,30.00
2024-02-22T16:09:46.050Z,28.90
2024-02-22T16:12:14.551Z,29.80
2024-02-22T16:14:42.356Z,33.20
2024-02-22T16:17:10.408Z,30.80
2024-02-22T16:19:38.311Z,34.80
2024-02-22T16:22:07.642Z,30.70
2024-02-22T16:24:35.270Z,36.10
2024-02-22T16:27:02.899Z,27.50
2024-02-22T16:29:30.656Z,28.10
2024-02-22T16:31:58.489Z,28.30
2024-02-22T16:34:29.955Z,27.90
2024-02-22T16:36:58.199Z,30.70
2024-02-22T16:39:31.011Z,27.90
2024-02-22T16:42:05.574Z,28.00
2024-02-22T16:44:35.327Z,31.50
2024-02-22T16:47:02.966Z,28.50
2024-02-22T16:49:30.516Z,29.90
2024-02-22T16:51:58.828Z,31.90
2024-02-22T16:54:26.701Z,31.10
2024-02-22T16:56:54.242Z,30.30
2024-02-22T16:59:21.895Z,29.40
2024-02-22T17:01:49.623Z,28.40
2024-02-22T17:04:17.220Z,28.00
2024-02-22T17:06:44.735Z,27.70
2024-02-22T17:09:12.437Z,28.20
2024-02-22T17:11:40.233Z,27.30
2024-02-22T17:14:07.902Z,29.60
2024-02-22T17:16:35.629Z,25.60
2024-02-22T17:19:03.245Z,31.30
2024-02-22T17:21:30.763Z,31.60
2024-02-22T17:23:58.773Z,28.70
2024-02-22T17:26:26.416Z,29.90
2024-02-22T17:28:54.030Z,28.20
2024-02-22T17:31:22.479Z,32.80
2024-02-22T17:33:50.102Z,27.10
2024-02-22T17:36:17.778Z,30.90
2024-02-22T17:38:45.333Z,31.90
2024-02-22T17:41:12.964Z,29.50
2024-02-22T17:43:40.547Z,30.90
2024-02-22T17:46:08.999Z,28.20
2024-02-22T17:48:38.355Z,34.50
2024-02-22T17:51:05.986Z,30.10
2024-02-22T17:53:35.412Z,30.20
2024-02-22T17:56:03.070Z,34.60
2024-02-22T17:58:32.110Z,35.30
2024-02-22T18:00:59.996Z,38.40
2024-02-22T18:03:28.188Z,30.60
2024-02-22T18:05:55.798Z,33.50
2024-02-22T18:08:23.818Z,36.70
2024-02-22T18:10:54.328Z,34.50
2024-02-22T18:13:22.005Z,34.40
2024-02-22T18:15:49.771Z,32.50
2024-02-22T18:18:17.663Z,31.50
2024-02-22T18:20:45.548Z,33.70
2024-02-22T18:23:13.294Z,34.90
2024-02-22T18:25:41.105Z,33.80
2024-02-22T18:28:09.056Z,38.60
2024-02-22T18:30:37.215Z,39.00
2024-02-22T18:33:05.332Z,45.10
2024-02-22T18:35:34.268Z,35.90
2024-02-22T18:38:03.005Z,38.10
2024-02-22T18:40:31.911Z,40.10
2024-02-22T18:43:00.399Z,35.80
2024-02-22T18:45:27.916Z,40.40
2024-02-22T18:47:56.215Z,38.00
2024-02-22T18:50:24.080Z,34.60
2024-02-22T18:52:52.053Z,37.70
2024-02-22T18:55:19.641Z,34.30
2024-02-22T18:57:47.161Z,36.80
2024-02-22T19:00:15.209Z,38.60
2024-02-22T19:02:42.949Z,37.30
2024-02-22T19:05:11.528Z,35.10
2024-02-22T19:07:39.751Z,36.70
2024-02-22T19:10:09.678Z,32.60
2024-02-22T19:12:38.262Z,32.50
2024-02-22T19:15:06.913Z,34.40
2024-02-22T19:17:34.592Z,29.80
2024-02-22T19:20:02.624Z,31.10
2024-02-22T19:22:31.598Z,30.10
2024-02-22T19:24:59.608Z,30.30
2024-02-22T19:27:29.458Z,34.00
2024-02-22T19:29:57.027Z,28.80
2024-02-22T19:32:24.751Z,23.10
2024-02-22T19:34:52.535Z,24.70
2024-02-22T19:37:20.153Z,25.70
2024-02-22T19:39:54.253Z,26.00
2024-02-22T19:42:21.824Z,24.60
2024-02-22T19:44:49.807Z,21.50
2024-02-22T19:47:17.433Z,22.50
2024-02-22T19:49:45.031Z,19.30
2024-02-22T19:52:12.607Z,19.40
2024-02-22T19:54:40.463Z,19.80
2024-02-22T19:57:08.031Z,18.10
2024-02-22T19:59:35.652Z,16.60
2024-02-22T20:02:03.352Z,15.00
2024-02-22T20:04:31.097Z,16.00
2024-02-22T20:06:58.889Z,11.90
2024-02-22T20:09:26.423Z,14.50
2024-02-22T20:11:54.084Z,11.40
2024-02-22T20:14:21.737Z,11.70
2024-02-22T20:16:52.615Z,13.70
2024-02-22T20:19:20.247Z,9.80
2024-02-22T20:21:48.041Z,11.50
2024-02-22T20:24:15.668Z,12.10
2024-02-22T20:26:43.303Z,9.30
2024-02-22T20:29:11.529Z,10.20
2024-02-22T20:31:39.748Z,9.20
2024-02-22T20:34:07.564Z,9.90
2024-02-22T20:36:36.148Z,10.80
2024-02-22T20:39:07.915Z,9.60
2024-02-22T20:44:03.845Z,10.40
2024-02-22T20:46:31.791Z,9.00
2024-02-22T20:49:01.000Z,9.30
2024-02-22T20:51:30.988Z,9.70
2024-02-22T20:53:58.895Z,9.50
2024-02-22T20:56:27.882Z,12.80
2024-02-22T20:58:55.907Z,10.50
2024-02-22T21:01:23.834Z,8.10
2024-02-22T21:03:51.510Z,10.00
2024-02-22T21:06:21.662Z,9.90
2024-02-22T21:08:50.299Z,8.40
2024-02-22T21:11:18.481Z,12.40
2024-02-22T21:13:46.352Z,10.80
2024-02-22T21:16:14.529Z,11.70
2024-02-22T21:18:42.523Z,11.20
2024-02-22T21:21:10.369Z,9.90
2024-02-22T21:23:39.724Z,13.60
2024-02-22T21:26:07.576Z,9.20
2024-02-22T21:28:35.312Z,10.70
2024-02-22T21:31:02.935Z,14.60
2024-02-22T21:33:32.379Z,9.40
2024-02-22T21:36:00.207Z,10.90
2024-02-22T21:38:28.210Z,12.60
2024-02-22T21:40:56.097Z,12.10
2024-02-22T21:43:24.949Z,13.90
2024-02-22T21:45:52.622Z,7.40
2024-02-22T21:48:20.205Z,9.10
2024-02-22T21:50:47.901Z,9.00
2024-02-22T21:53:15.600Z,10.70
2024-02-22T21:55:43.296Z,10.10
2024-02-22T21:58:10.929Z,12.50
2024-02-22T22:00:39.019Z,9.10
2024-02-22T22:05:52.107Z,10.60
2024-02-22T22:08:19.898Z,10.70
2024-02-22T22:10:47.495Z,12.60
2024-02-22T22:13:15.059Z,9.10
2024-02-22T22:15:42.546Z,8.70
2024-02-22T22:18:10.156Z,8.20
2024-02-22T22:20:37.712Z,8.00
2024-02-22T22:23:05.472Z,8.60
2024-02-22T22:25:33.030Z,10.20
2024-02-22T22:28:00.487Z,8.30
2024-02-22T22:30:28.021Z,8.90
2024-02-22T22:32:55.473Z,9.00
2024-02-22T22:35:23.156Z,10.70
2024-02-22T22:37:50.784Z,8.90
2024-02-22T22:40:18.215Z,8.40
2024-02-22T22:42:45.788Z,8.50
2024-02-22T22:45:13.440Z,11.80
2024-02-22T22:47:40.977Z,8.50
2024-02-22T22:50:10.114Z,7.50
2024-02-22T22:52:37.724Z,8.90
2024-02-22T22:55:07.763Z,7.00
2024-02-22T22:57:35.627Z,9.60
2024-02-22T23:00:09.888Z,7.90
2024-02-22T23:02:37.707Z,7.50
2024-02-22T23:05:05.833Z,8.40
2024-02-22T23:07:33.325Z,7.60
2024-02-22T23:10:00.952Z,7.40
2024-02-22T23:12:28.532Z,7.10
2024-02-22T23:14:59.513Z,7.80
2024-02-22T23:17:27.223Z,8.90
2024-02-22T23:19:54.790Z,6.60
2024-02-22T23:22:22.429Z,6.60
2024-02-22T23:24:50.124Z,8.30
2024-02-22T23:27:17.739Z,7.40
2024-02-22T23:29:45.286Z,8.70
2024-02-22T23:32:12.819Z,5.60
2024-02-22T23:34:40.992Z,6.80
2024-02-22T23:37:08.545Z,6.60
2024-02-22T23:39:37.490Z,11.30
2024-02-22T23:42:05.471Z,9.00
2024-02-22T23:44:33.061Z,5.90
2024-02-22T23:47:00.669Z,5.40
2024-02-22T23:49:28.278Z,6.90
2024-02-22T23:51:57.317Z,8.00
2024-02-22T23:54:25.176Z,6.20
2024-02-22T23:56:52.676Z,6.60
2024-02-22T23:59:21.478Z,6.20
